createdAt,value
2023-03-12T00:01:42.294Z,14.90
2023-03-12T00:04:10.285Z,11.20
2023-03-12T00:06:37.810Z,10.80
2023-03-12T00:09:05.966Z,11.90
2023-03-12T00:11:33.501Z,10.40
2023-03-12T00:14:01.226Z,11.20
2023-03-12T00:16:28.867Z,10.70
2023-03-12T00:18:56.467Z,8.70
2023-03-12T00:21:23.976Z,8.80
2023-03-12T00:23:51.556Z,12.50
2023-03-12T00:26:19.039Z,14.80
2023-03-12T00:28:46.515Z,9.60
2023-03-12T00:31:14.500Z,8.20
2023-03-12T00:33:42.042Z,9.30
2023-03-12T00:36:12.188Z,6.90
2023-03-12T00:38:41.986Z,7.20
2023-03-12T00:41:09.522Z,11.10
2023-03-12T00:43:37.660Z,10.90
2023-03-12T00:46:05.310Z,9.30
2023-03-12T00:48:33.551Z,9.80
2023-03-12T00:51:01.170Z,10.20
2023-03-12T00:53:28.772Z,11.80
2023-03-12T00:55:56.350Z,8.30
2023-03-12T00:58:23.830Z,9.10
2023-03-12T01:00:51.428Z,11.20
2023-03-12T01:03:18.927Z,8.90
2023-03-12T01:05:46.442Z,12.10
2023-03-12T01:08:14.226Z,9.10
2023-03-12T01:10:41.825Z,9.80
2023-03-12T01:13:09.484Z,10.30
2023-03-12T01:15:38.296Z,9.30
2023-03-12T01:18:05.947Z,10.90
2023-03-12T01:20:33.438Z,9.70
2023-03-12T01:23:01.053Z,9.30
2023-03-12T01:25:28.698Z,11.40
2023-03-12T01:27:56.207Z,12.60
2023-03-12T01:30:24.555Z,13.00
2023-03-12T01:32:52.179Z,11.90
2023-03-12T01:35:19.909Z,12.80
2023-03-12T01:37:47.579Z,11.80
2023-03-12T01:40:15.065Z,11.60
2023-03-12T01:42:42.553Z,11.30
2023-03-12T01:45:10.304Z,11.70
2023-03-12T01:47:37.789Z,8.80
2023-03-12T01:50:05.975Z,9.10
2023-03-12T01:52:33.580Z,12.60
2023-03-12T01:55:01.067Z,13.30
2023-03-12T01:57:29.056Z,13.70
2023-03-12T01:59:56.645Z,12.50
2023-03-12T02:02:27.711Z,11.70
2023-03-12T02:04:55.282Z,13.10
2023-03-12T02:07:22.782Z,10.60
2023-03-12T02:09:50.437Z,10.30
2023-03-12T02:12:17.960Z,10.20
2023-03-12T02:14:45.574Z,10.00
2023-03-12T02:17:13.331Z,10.40
2023-03-12T02:19:40.989Z,10.70
2023-03-12T02:22:08.563Z,10.20
2023-03-12T02:24:36.314Z,9.60
2023-03-12T02:27:03.814Z,8.90
2023-03-12T02:29:31.432Z,12.50
2023-03-12T02:31:59.097Z,9.70
2023-03-12T02:34:26.682Z,10.70
2023-03-12T02:36:54.280Z,13.00
2023-03-12T02:39:21.855Z,10.50
2023-03-12T02:41:49.327Z,10.80
2023-03-12T02:44:16.907Z,11.50
2023-03-12T02:46:44.567Z,11.60
2023-03-12T02:49:13.478Z,11.10
2023-03-12T02:51:41.257Z,13.40
2023-03-12T02:54:09.346Z,10.80
2023-03-12T02:56:36.924Z,10.00
2023-03-12T02:59:04.632Z,12.20
2023-03-12T03:01:35.281Z,15.10
2023-03-12T03:04:02.825Z,11.70
2023-03-12T03:06:31.230Z,12.30
2023-03-12T03:08:58.864Z,13.50
2023-03-12T03:11:27.177Z,14.50
2023-03-12T03:13:55.277Z,12.50
2023-03-12T03:16:22.770Z,12.30
2023-03-12T03:18:50.375Z,11.10
2023-03-12T03:21:18.011Z,14.70
2023-03-12T03:23:45.674Z,11.60
2023-03-12T03:26:13.514Z,13.50
2023-03-12T03:31:08.991Z,10.70
2023-03-12T03:33:37.554Z,8.90
2023-03-12T03:36:05.484Z,9.50
2023-03-12T03:38:33.560Z,11.30
2023-03-12T03:41:01.256Z,9.80
2023-03-12T03:43:28.953Z,10.50
2023-03-12T03:45:56.474Z,11.40
2023-03-12T03:48:24.029Z,10.50
2023-03-12T03:50:51.625Z,11.20
2023-03-12T03:53:20.072Z,10.10
2023-03-12T03:55:47.853Z,10.90
2023-03-12T03:58:15.408Z,10.80
2023-03-12T04:00:42.927Z,9.40
2023-03-12T04:03:10.571Z,9.00
2023-03-12T04:05:38.290Z,10.60
2023-03-12T04:08:05.934Z,10.30
2023-03-12T04:10:33.516Z,12.20
2023-03-12T04:13:01.275Z,10.70
2023-03-12T04:15:33.754Z,12.00
2023-03-12T04:18:02.769Z,11.00
2023-03-12T04:20:31.036Z,11.00
2023-03-12T04:22:58.692Z,14.80
2023-03-12T04:25:26.509Z,10.70
2023-03-12T04:27:54.002Z,12.70
2023-03-12T04:30:21.740Z,15.10
2023-03-12T04:32:49.337Z,10.80
2023-03-12T04:35:16.854Z,12.70
2023-03-12T04:37:44.332Z,15.70
2023-03-12T04:40:12.416Z,21.90
2023-03-12T04:42:39.941Z,14.50
2023-03-12T04:45:07.522Z,11.10
2023-03-12T04:47:35.007Z,13.10
2023-03-12T04:50:03.500Z,13.20
2023-03-12T04:52:31.040Z,11.40
2023-03-12T04:54:59.825Z,11.10
2023-03-12T04:57:27.310Z,13.70
2023-03-12T04:59:55.280Z,14.00
2023-03-12T05:02:23.871Z,13.90
2023-03-12T05:04:51.630Z,14.90
2023-03-12T05:07:19.940Z,15.40
2023-03-12T05:09:47.759Z,13.20
2023-03-12T05:12:15.708Z,14.30
2023-03-12T05:14:43.296Z,14.00
2023-03-12T05:17:10.878Z,12.20
2023-03-12T05:19:38.390Z,19.00
2023-03-12T05:22:06.163Z,18.30
2023-03-12T05:24:33.715Z,21.20
2023-03-12T05:27:01.170Z,20.60
2023-03-12T05:29:29.793Z,24.20
2023-03-12T05:31:57.458Z,24.10
2023-03-12T05:34:25.138Z,21.80
2023-03-12T05:36:52.921Z,21.10
2023-03-12T05:39:20.605Z,29.20
2023-03-12T05:41:48.658Z,27.20
2023-03-12T05:44:17.800Z,22.00
2023-03-12T05:46:45.342Z,21.80
2023-03-12T05:49:12.862Z,20.70
2023-03-12T05:51:40.501Z,26.00
2023-03-12T05:54:08.128Z,24.30
2023-03-12T05:56:35.607Z,21.90
2023-03-12T05:59:03.146Z,19.20
2023-03-12T06:01:30.704Z,22.20
2023-03-12T06:03:58.238Z,18.30
2023-03-12T06:06:25.753Z,18.40
2023-03-12T06:08:53.339Z,21.40
2023-03-12T06:11:20.836Z,20.30
2023-03-12T06:13:48.475Z,23.50
2023-03-12T06:16:16.142Z,25.60
2023-03-12T06:18:43.946Z,34.10
2023-03-12T06:21:11.484Z,22.00
2023-03-12T06:23:39.840Z,22.70
2023-03-12T06:26:08.084Z,19.60
2023-03-12T06:28:35.584Z,18.70
2023-03-12T06:31:03.281Z,20.60
2023-03-12T06:33:30.764Z,13.30
2023-03-12T06:35:58.305Z,13.10
2023-03-12T06:38:25.984Z,13.00
2023-03-12T06:40:53.559Z,15.70
2023-03-12T06:43:21.585Z,16.40
2023-03-12T06:45:49.974Z,15.40
2023-03-12T06:48:17.518Z,13.30
2023-03-12T06:50:45.234Z,7.50
2023-03-12T06:53:12.984Z,10.30
2023-03-12T06:55:40.765Z,9.80
2023-03-12T06:58:09.149Z,8.60
2023-03-12T07:00:36.976Z,8.30
2023-03-12T07:03:04.773Z,8.00
2023-03-12T07:05:32.637Z,9.10
2023-03-12T07:08:00.603Z,8.10
2023-03-12T07:10:29.475Z,8.10
2023-03-12T07:12:57.961Z,11.70
2023-03-12T07:15:25.920Z,10.40
2023-03-12T07:17:53.511Z,9.40
2023-03-12T07:20:21.408Z,4.60
2023-03-12T07:22:49.315Z,7.10
2023-03-12T07:25:18.939Z,8.50
2023-03-12T07:27:46.810Z,8.30
2023-03-12T07:30:14.413Z,8.10
2023-03-12T07:32:42.266Z,11.70
2023-03-12T07:35:10.443Z,4.70
2023-03-12T07:37:38.538Z,5.40
2023-03-12T07:40:07.561Z,7.00
2023-03-12T07:42:35.367Z,6.80
2023-03-12T07:45:04.310Z,8.20
2023-03-12T07:47:35.269Z,7.20
2023-03-12T07:50:03.677Z,4.20
2023-03-12T07:52:31.603Z,6.30
2023-03-12T07:55:01.376Z,6.60
2023-03-12T07:57:29.214Z,5.20
2023-03-12T07:59:57.018Z,5.40
2023-03-12T08:02:25.200Z,5.00
2023-03-12T08:04:53.719Z,5.90
2023-03-12T08:07:21.605Z,6.80
2023-03-12T08:09:50.382Z,5.70
2023-03-12T08:12:18.601Z,5.20
2023-03-12T08:14:47.172Z,5.20
2023-03-12T08:17:15.260Z,7.10
2023-03-12T08:19:43.082Z,5.20
2023-03-12T08:22:10.818Z,5.40
2023-03-12T08:24:38.696Z,5.70
2023-03-12T08:27:06.385Z,5.90
2023-03-12T08:29:33.966Z,5.20
2023-03-12T08:32:04.929Z,3.90
2023-03-12T08:34:33.090Z,5.20
2023-03-12T08:37:01.805Z,6.10
2023-03-12T08:39:30.047Z,5.40
2023-03-12T08:41:58.657Z,7.00
2023-03-12T08:44:27.194Z,6.20
2023-03-12T08:46:56.107Z,5.40
2023-03-12T08:49:24.087Z,4.60
2023-03-12T08:51:51.990Z,6.40
2023-03-12T08:54:19.494Z,5.50
2023-03-12T08:56:47.389Z,5.30
2023-03-12T08:59:15.406Z,4.70
2023-03-12T09:01:44.022Z,4.80
2023-03-12T09:04:15.335Z,5.70
2023-03-12T09:06:43.269Z,4.50
2023-03-12T09:09:11.093Z,5.10
2023-03-12T09:11:42.634Z,5.40
2023-03-12T09:16:58.998Z,5.10
2023-03-12T09:19:27.027Z,5.20
2023-03-12T09:21:54.742Z,4.20
2023-03-12T09:24:22.853Z,4.60
2023-03-12T09:26:50.807Z,4.40
2023-03-12T09:29:19.313Z,5.30
2023-03-12T09:31:46.824Z,4.60
2023-03-12T09:34:15.201Z,4.50
2023-03-12T09:36:42.985Z,5.10
2023-03-12T09:39:10.762Z,5.70
2023-03-12T09:41:40.183Z,3.10
2023-03-12T09:44:08.194Z,5.80
2023-03-12T09:46:36.173Z,4.40
2023-03-12T09:49:04.834Z,4.70
2023-03-12T09:51:33.039Z,4.40
2023-03-12T09:54:00.980Z,4.80
2023-03-12T09:56:50.594Z,5.20
2023-03-12T09:59:18.472Z,5.20
2023-03-12T10:01:46.539Z,3.50
2023-03-12T10:04:14.810Z,6.30
2023-03-12T10:06:42.471Z,3.30
2023-03-12T10:09:09.988Z,3.60
2023-03-12T10:11:39.318Z,3.80
2023-03-12T10:14:07.001Z,2.60
2023-03-12T10:16:34.532Z,5.10
2023-03-12T10:19:02.465Z,3.80
2023-03-12T10:21:30.214Z,5.70
2023-03-12T10:23:57.904Z,4.00
2023-03-12T10:26:26.466Z,4.40
2023-03-12T10:28:54.163Z,2.30
2023-03-12T10:31:21.832Z,2.70
2023-03-12T10:33:54.024Z,3.30
2023-03-12T10:36:21.688Z,4.00
2023-03-12T10:38:49.526Z,4.20
2023-03-12T10:41:17.647Z,3.30
2023-03-12T10:43:45.442Z,2.10
2023-03-12T10:46:13.008Z,3.60
2023-03-12T10:48:40.576Z,4.90
2023-03-12T10:51:08.363Z,4.50
2023-03-12T10:53:36.028Z,5.30
2023-03-12T10:56:03.682Z,2.90
2023-03-12T10:58:31.328Z,4.90
2023-03-12T11:00:58.995Z,2.50
2023-03-12T11:03:27.121Z,4.00
2023-03-12T11:05:54.758Z,5.30
2023-03-12T11:08:23.743Z,6.20
2023-03-12T11:10:51.385Z,4.80
2023-03-12T11:13:18.920Z,4.00
2023-03-12T11:15:46.681Z,5.50
2023-03-12T11:18:14.272Z,5.40
2023-03-12T11:20:41.788Z,3.60
2023-03-12T11:23:12.030Z,4.60
2023-03-12T11:25:39.557Z,4.00
2023-03-12T11:28:07.141Z,5.10
2023-03-12T11:30:34.770Z,4.60
2023-03-12T11:33:02.416Z,4.50
2023-03-12T11:35:30.276Z,3.90
2023-03-12T11:37:57.793Z,3.90
2023-03-12T11:40:25.912Z,5.50
2023-03-12T11:42:53.481Z,4.70
2023-03-12T11:45:21.100Z,3.60
2023-03-12T11:47:49.044Z,5.00
2023-03-12T11:50:16.692Z,4.60
2023-03-12T11:52:44.394Z,4.60
2023-03-12T11:55:13.788Z,1.80
2023-03-12T11:57:42.639Z,3.80
2023-03-12T12:00:13.120Z,3.80
2023-03-12T12:02:40.639Z,4.00
2023-03-12T12:05:08.222Z,3.90
2023-03-12T12:07:35.732Z,3.40
2023-03-12T12:10:03.240Z,2.30
2023-03-12T12:12:30.858Z,3.60
2023-03-12T12:14:58.451Z,3.80
2023-03-12T12:17:26.365Z,3.90
2023-03-12T12:19:53.912Z,3.40
2023-03-12T12:22:21.608Z,3.30
2023-03-12T12:24:49.715Z,2.60
2023-03-12T12:27:17.898Z,4.60
2023-03-12T12:29:47.862Z,3.00
2023-03-12T12:32:17.125Z,2.40
2023-03-12T12:34:44.838Z,3.00
2023-03-12T12:37:12.430Z,2.20
2023-03-12T12:39:39.989Z,1.70
2023-03-12T12:42:07.664Z,2.50
2023-03-12T12:44:37.905Z,2.10
2023-03-12T12:47:05.569Z,2.70
2023-03-12T12:49:34.236Z,3.30
2023-03-12T12:52:01.935Z,3.50
2023-03-12T12:54:29.869Z,3.40
2023-03-12T12:56:57.407Z,3.30
2023-03-12T12:59:26.373Z,3.90
2023-03-12T13:01:53.929Z,3.80
2023-03-12T13:04:21.910Z,2.80
2023-03-12T13:06:49.764Z,2.10
2023-03-12T13:09:17.377Z,3.70
2023-03-12T13:11:45.127Z,5.00
2023-03-12T13:14:12.922Z,6.90
2023-03-12T13:16:42.866Z,3.20
2023-03-12T13:19:10.732Z,7.30
2023-03-12T13:21:38.338Z,2.50
2023-03-12T13:24:05.974Z,4.80
2023-03-12T13:26:33.800Z,6.80
2023-03-12T13:29:12.420Z,2.70
2023-03-12T13:31:40.658Z,2.10
2023-03-12T13:34:09.112Z,3.70
2023-03-12T13:36:36.861Z,5.40
2023-03-12T13:39:06.757Z,5.80
2023-03-12T13:41:34.316Z,3.90
2023-03-12T13:44:02.022Z,2.50
2023-03-12T13:46:30.942Z,5.40
2023-03-12T13:48:58.631Z,7.20
2023-03-12T13:51:26.868Z,3.40
2023-03-12T13:53:54.557Z,7.10
2023-03-12T13:56:22.433Z,4.80
2023-03-12T13:58:49.966Z,3.70
2023-03-12T14:01:17.533Z,2.90
2023-03-12T14:03:45.405Z,4.70
2023-03-12T14:06:12.925Z,5.50
2023-03-12T14:08:40.560Z,4.40
2023-03-12T14:11:08.459Z,4.60
2023-03-12T14:13:36.031Z,2.80
2023-03-12T14:16:03.864Z,3.60
2023-03-12T14:18:34.095Z,3.30
2023-03-12T14:21:01.661Z,2.90
2023-03-12T14:23:30.907Z,3.80
2023-03-12T14:26:00.394Z,4.10
2023-03-12T14:28:29.475Z,4.30
2023-03-12T14:30:57.141Z,3.40
2023-03-12T14:33:24.830Z,4.00
2023-03-12T14:35:52.402Z,6.10
2023-03-12T14:38:20.650Z,4.00
2023-03-12T14:40:48.305Z,3.90
2023-03-12T14:43:15.878Z,2.70
2023-03-12T14:45:43.575Z,8.60
2023-03-12T14:48:12.177Z,5.70
2023-03-12T14:50:40.339Z,7.60
2023-03-12T14:53:08.643Z,5.10
2023-03-12T14:55:36.794Z,5.20
2023-03-12T14:58:05.090Z,5.30
2023-03-12T15:00:33.076Z,4.30
2023-03-12T15:03:00.793Z,6.00
2023-03-12T15:05:28.374Z,5.20
2023-03-12T15:07:56.084Z,3.60
2023-03-12T15:10:23.709Z,7.20
2023-03-12T15:12:51.300Z,5.70
2023-03-12T15:15:18.952Z,7.40
2023-03-12T15:17:46.699Z,8.30
2023-03-12T15:20:14.298Z,7.20
2023-03-12T15:22:41.816Z,5.60
2023-03-12T15:25:09.642Z,9.20
2023-03-12T15:27:37.252Z,9.10
2023-03-12T15:30:04.809Z,10.30
2023-03-12T15:32:32.547Z,9.60
2023-03-12T15:35:00.995Z,13.70
2023-03-12T15:37:32.850Z,9.80
2023-03-12T15:40:01.360Z,11.60
2023-03-12T15:42:29.553Z,13.80
2023-03-12T15:44:57.419Z,14.60
2023-03-12T15:47:25.196Z,14.40
2023-03-12T15:49:53.315Z,11.40
2023-03-12T15:52:27.643Z,10.90
2023-03-12T15:54:55.372Z,7.80
2023-03-12T15:57:23.127Z,5.70
2023-03-12T15:59:51.000Z,5.60
2023-03-12T16:02:18.777Z,6.00
2023-03-12T16:04:46.786Z,6.00
2023-03-12T16:07:14.669Z,6.70
2023-03-12T16:09:42.723Z,6.40
2023-03-12T16:12:10.387Z,6.20
2023-03-12T16:14:38.091Z,8.80
2023-03-12T16:17:05.961Z,7.70
2023-03-12T16:19:34.315Z,6.80
2023-03-12T16:22:01.968Z,7.20
2023-03-12T16:24:29.720Z,6.30
2023-03-12T16:26:57.480Z,7.90
2023-03-12T16:29:25.234Z,7.50
2023-03-12T16:31:53.149Z,7.60
2023-03-12T16:34:23.873Z,9.50
2023-03-12T16:36:51.636Z,7.20
2023-03-12T16:39:19.578Z,8.40
2023-03-12T16:41:47.359Z,67.50
2023-03-12T16:44:15.300Z,18.10
2023-03-12T16:46:43.118Z,13.80
2023-03-12T16:49:11.081Z,17.40
2023-03-12T16:51:38.824Z,31.40
2023-03-12T16:54:11.821Z,19.10
2023-03-12T16:56:40.010Z,20.50
2023-03-12T16:59:08.023Z,17.00
2023-03-12T17:01:35.879Z,16.30
2023-03-12T17:04:05.116Z,26.40
2023-03-12T17:06:35.055Z,85.70
2023-03-12T17:09:03.172Z,48.60
2023-03-12T17:11:32.897Z,45.70
2023-03-12T17:14:00.968Z,33.90
2023-03-12T17:16:28.889Z,45.30
2023-03-12T17:18:56.961Z,67.60
2023-03-12T17:21:25.035Z,89.50
2023-03-12T17:23:52.959Z,78.20
2023-03-12T17:26:21.606Z,99.70
2023-03-12T17:28:49.331Z,90.90
2023-03-12T17:31:17.091Z,48.40
2023-03-12T17:33:45.816Z,47.20
2023-03-12T17:36:13.376Z,47.50
2023-03-12T17:38:41.033Z,41.90
2023-03-12T17:41:23.401Z,31.30
2023-03-12T17:43:53.291Z,27.80
2023-03-12T17:46:21.069Z,23.80
2023-03-12T17:48:49.208Z,27.70
2023-03-12T17:51:17.872Z,32.50
2023-03-12T17:53:45.524Z,56.30
2023-03-12T17:56:13.467Z,51.60
2023-03-12T17:58:41.256Z,43.60
2023-03-12T18:01:08.954Z,32.70
2023-03-12T18:03:36.913Z,36.10
2023-03-12T18:06:04.912Z,39.60
2023-03-12T18:08:38.372Z,41.60
2023-03-12T18:11:06.244Z,42.40
2023-03-12T18:13:33.822Z,40.00
2023-03-12T18:16:01.524Z,43.20
2023-03-12T18:18:29.291Z,86.10
2023-03-12T18:20:57.161Z,156.10
2023-03-12T18:23:25.589Z,185.90
2023-03-12T18:25:53.423Z,82.70
2023-03-12T18:28:22.616Z,57.80
2023-03-12T18:30:50.501Z,48.30
2023-03-12T18:33:18.080Z,46.50
2023-03-12T18:35:45.767Z,50.10
2023-03-12T18:38:13.672Z,51.40
2023-03-12T18:40:41.455Z,64.70
2023-03-12T18:43:09.137Z,50.30
2023-03-12T18:45:37.985Z,26.00
2023-03-12T18:48:05.868Z,26.60
2023-03-12T18:50:33.497Z,30.20
2023-03-12T18:53:01.231Z,30.80
2023-03-12T18:55:29.507Z,29.10
2023-03-12T18:57:57.137Z,33.50
2023-03-12T19:00:25.104Z,33.30
2023-03-12T19:02:53.377Z,40.10
2023-03-12T19:05:21.977Z,41.80
2023-03-12T19:07:49.774Z,49.00
2023-03-12T19:10:17.756Z,66.00
2023-03-12T19:12:53.568Z,82.70
2023-03-12T19:15:22.214Z,103.30
2023-03-12T19:17:51.891Z,98.80
2023-03-12T19:20:19.735Z,78.70
2023-03-12T19:22:50.066Z,79.10
2023-03-12T19:25:18.155Z,78.50
2023-03-12T19:27:45.864Z,68.10
2023-03-12T19:30:13.945Z,75.90
2023-03-12T19:32:44.287Z,54.80
2023-03-12T19:35:12.510Z,49.80
2023-03-12T19:37:40.285Z,50.50
2023-03-12T19:40:08.510Z,47.20
2023-03-12T19:42:37.552Z,43.00
2023-03-12T19:45:05.679Z,42.20
2023-03-12T19:47:33.563Z,45.90
2023-03-12T19:50:01.273Z,38.60
2023-03-12T19:52:29.558Z,38.80
2023-03-12T19:55:04.637Z,61.30
2023-03-12T19:57:34.051Z,57.10
2023-03-12T20:00:02.176Z,56.10
2023-03-12T20:02:30.075Z,60.70
2023-03-12T20:04:58.143Z,77.80
2023-03-12T20:07:25.934Z,75.00
2023-03-12T20:09:53.931Z,87.60
2023-03-12T20:12:21.743Z,85.00
2023-03-12T20:14:49.959Z,52.50
2023-03-12T20:17:19.129Z,81.90
2023-03-12T20:19:47.477Z,68.00
2023-03-12T20:22:15.229Z,78.90
2023-03-12T20:24:43.327Z,72.70
2023-03-12T20:27:13.471Z,90.00
2023-03-12T20:29:43.592Z,80.60
2023-03-12T20:32:11.651Z,90.30
2023-03-12T20:34:39.394Z,89.00
2023-03-12T20:37:07.095Z,101.50
2023-03-12T20:39:34.839Z,54.10
2023-03-12T20:42:02.550Z,90.90
2023-03-12T20:44:30.299Z,92.40
2023-03-12T20:46:57.965Z,89.50
2023-03-12T20:49:26.526Z,79.80
2023-03-12T20:51:54.344Z,89.30
2023-03-12T20:54:22.222Z,89.00
2023-03-12T20:56:50.325Z,89.50
2023-03-12T20:59:17.921Z,96.00
2023-03-12T21:01:48.118Z,78.90
2023-03-12T21:04:15.840Z,77.30
2023-03-12T21:06:44.918Z,54.70
2023-03-12T21:09:12.630Z,42.70
2023-03-12T21:11:40.353Z,64.00
2023-03-12T21:14:07.967Z,70.90
2023-03-12T21:16:35.599Z,49.70
2023-03-12T21:19:04.442Z,37.20
2023-03-12T21:21:32.248Z,30.70
2023-03-12T21:23:59.869Z,20.30
2023-03-12T21:26:27.622Z,16.70
2023-03-12T21:28:55.171Z,22.00
2023-03-12T21:31:23.580Z,16.50
2023-03-12T21:33:51.450Z,15.90
2023-03-12T21:36:18.956Z,21.20
2023-03-12T21:38:47.596Z,20.50
2023-03-12T21:41:15.265Z,16.60
2023-03-12T21:43:42.888Z,16.60
2023-03-12T21:46:10.463Z,11.20
2023-03-12T21:48:41.609Z,10.60
2023-03-12T21:51:09.451Z,10.50
2023-03-12T21:53:37.252Z,8.10
2023-03-12T21:56:04.900Z,10.70
2023-03-12T21:58:32.443Z,35.50
2023-03-12T22:01:02.406Z,40.90
2023-03-12T22:03:29.986Z,32.10
2023-03-12T22:05:57.464Z,43.50
2023-03-12T22:08:25.025Z,43.40
2023-03-12T22:10:52.602Z,29.40
2023-03-12T22:13:20.096Z,29.30
2023-03-12T22:15:47.728Z,38.20
2023-03-12T22:18:15.684Z,47.10
2023-03-12T22:20:43.276Z,55.10
2023-03-12T22:23:11.684Z,44.70
2023-03-12T22:25:39.296Z,38.20
2023-03-12T22:28:07.049Z,27.60
2023-03-12T22:30:34.884Z,40.20
2023-03-12T22:33:02.500Z,36.00
2023-03-12T22:35:30.119Z,39.50
2023-03-12T22:37:57.666Z,26.90
2023-03-12T22:40:25.363Z,11.90
2023-03-12T22:42:52.889Z,7.20
2023-03-12T22:45:20.397Z,6.10
2023-03-12T22:47:48.096Z,6.60
2023-03-12T22:50:15.879Z,6.80
2023-03-12T22:52:43.583Z,4.90
2023-03-12T22:55:11.361Z,6.00
2023-03-12T22:57:39.015Z,6.20
2023-03-12T23:00:07.082Z,4.90
2023-03-12T23:02:35.389Z,6.10
2023-03-12T23:05:03.068Z,89.10
2023-03-12T23:07:30.915Z,18.20
2023-03-12T23:09:58.552Z,9.80
2023-03-12T23:12:26.291Z,7.40
2023-03-12T23:14:53.765Z,7.00
2023-03-12T23:17:21.549Z,7.80
2023-03-12T23:19:49.286Z,9.90
2023-03-12T23:22:16.852Z,7.70
2023-03-12T23:24:45.065Z,7.50
2023-03-12T23:27:12.576Z,7.30
2023-03-12T23:29:40.211Z,8.40
2023-03-12T23:32:07.935Z,6.30
2023-03-12T23:34:35.475Z,6.50
2023-03-12T23:37:03.730Z,9.00
2023-03-12T23:39:32.704Z,7.90
2023-03-12T23:42:00.367Z,7.00
2023-03-12T23:44:27.944Z,4.50
2023-03-12T23:46:57.648Z,6.10
2023-03-12T23:49:25.257Z,6.40
2023-03-12T23:51:52.828Z,8.20
2023-03-12T23:54:20.681Z,8.80
2023-03-12T23:56:48.793Z,6.60
2023-03-12T23:59:16.302Z,5.40
